sensor_id;sensor_type;location;lat;lon;timestamp;pressure;altitude;pressure_sealevel;temperature;humidity
62059;BME280;48017;51.064;7.014;2022-10-19T00:01:25;102088.81;;;10.05;100.00
62059;BME280;48017;51.064;7.014;2022-10-19T00:03:53;102088.63;;;10.38;100.00
62059;BME280;48017;51.064;7.014;2022-10-19T00:08:50;102083.03;;;10.29;100.00
62059;BME280;48017;51.064;7.014;2022-10-19T00:11:16;102081.34;;;10.28;100.00
62059;BME280;48017;51.064;7.014;2022-10-19T00:13:42;102079.38;;;10.01;100.00
62059;BME280;48017;51.064;7.014;2022-10-19T00:16:10;102078.31;;;9.74;100.00
62059;BME280;48017;51.064;7.014;2022-10-19T00:18:37;102072.09;;;9.59;100.00
62059;BME280;48017;51.064;7.014;2022-10-19T00:21:04;102072.59;;;9.66;100.00
62059;BME280;48017;51.064;7.014;2022-10-19T00:23:30;102077.38;;;9.59;100.00
62059;BME280;48017;51.064;7.014;2022-10-19T00:25:56;102083.28;;;9.64;100.00
62059;BME280;48017;51.064;7.014;2022-10-19T00:28:22;102072.13;;;9.89;100.00
62059;BME280;48017;51.064;7.014;2022-10-19T00:30:47;102080.25;;;10.16;100.00
62059;BME280;48017;51.064;7.014;2022-10-19T00:33:13;102078.63;;;10.14;100.00
62059;BME280;48017;51.064;7.014;2022-10-19T00:35:41;102081.00;;;10.18;100.00
62059;BME280;48017;51.064;7.014;2022-10-19T00:38:06;102074.53;;;10.24;100.00
62059;BME280;48017;51.064;7.014;2022-10-19T00:40:39;102075.47;;;10.23;100.00
62059;BME280;48017;51.064;7.014;2022-10-19T00:43:18;102077.50;;;10.18;100.00
62059;BME280;48017;51.064;7.014;2022-10-19T00:45:44;102081.53;;;10.09;100.00
62059;BME280;48017;51.064;7.014;2022-10-19T00:48:12;102072.63;;;9.96;100.00
62059;BME280;48017;51.064;7.014;2022-10-19T00:50:40;102072.91;;;9.91;100.00
62059;BME280;48017;51.064;7.014;2022-10-19T00:53:06;102070.84;;;9.80;100.00
62059;BME280;48017;51.064;7.014;2022-10-19T00:55:32;102074.63;;;9.76;100.00
62059;BME280;48017;51.064;7.014;2022-10-19T00:57:59;102071.00;;;9.63;100.00
62059;BME280;48017;51.064;7.014;2022-10-19T01:00:26;102073.44;;;9.66;100.00
62059;BME280;48017;51.064;7.014;2022-10-19T01:02:52;102077.78;;;9.83;100.00
62059;BME280;48017;51.064;7.014;2022-10-19T01:05:18;102072.06;;;9.75;100.00
62059;BME280;48017;51.064;7.014;2022-10-19T01:07:43;102075.34;;;9.48;100.00
62059;BME280;48017;51.064;7.014;2022-10-19T01:10:09;102076.91;;;9.21;100.00
62059;BME280;48017;51.064;7.014;2022-10-19T01:17:51;102059.59;;;9.00;100.00
62059;BME280;48017;51.064;7.014;2022-10-19T01:37:02;102074.31;;;9.19;100.00
62059;BME280;48017;51.064;7.014;2022-10-19T01:39:49;102072.81;;;9.15;100.00
62059;BME280;48017;51.064;7.014;2022-10-19T01:42:27;102063.75;;;9.04;100.00
62059;BME280;48017;51.064;7.014;2022-10-19T01:48:06;102058.97;;;8.94;100.00
62059;BME280;48017;51.064;7.014;2022-10-19T01:50:41;102059.22;;;8.57;100.00
62059;BME280;48017;51.064;7.014;2022-10-19T01:53:09;102057.97;;;8.48;100.00
62059;BME280;48017;51.064;7.014;2022-10-19T01:55:38;102054.00;;;8.73;100.00
62059;BME280;48017;51.064;7.014;2022-10-19T01:58:09;102046.06;;;8.73;100.00
62059;BME280;48017;51.064;7.014;2022-10-19T02:00:36;102046.81;;;8.75;100.00
62059;BME280;48017;51.064;7.014;2022-10-19T02:03:04;102036.88;;;8.80;100.00
62059;BME280;48017;51.064;7.014;2022-10-19T02:05:32;102033.19;;;8.82;100.00
62059;BME280;48017;51.064;7.014;2022-10-19T02:08:01;102035.22;;;8.77;100.00
62059;BME280;48017;51.064;7.014;2022-10-19T02:10:30;102034.22;;;8.47;100.00
62059;BME280;48017;51.064;7.014;2022-10-19T02:12:57;102032.94;;;8.38;100.00
62059;BME280;48017;51.064;7.014;2022-10-19T02:15:24;102029.56;;;8.68;100.00
62059;BME280;48017;51.064;7.014;2022-10-19T02:17:51;102024.06;;;8.72;100.00
62059;BME280;48017;51.064;7.014;2022-10-19T02:20:18;102016.72;;;8.93;100.00
62059;BME280;48017;51.064;7.014;2022-10-19T02:22:44;102029.09;;;8.92;100.00
62059;BME280;48017;51.064;7.014;2022-10-19T02:25:10;102026.34;;;8.78;100.00
62059;BME280;48017;51.064;7.014;2022-10-19T02:27:38;102024.31;;;8.83;100.00
62059;BME280;48017;51.064;7.014;2022-10-19T02:30:07;102026.34;;;8.78;100.00
62059;BME280;48017;51.064;7.014;2022-10-19T02:32:33;102018.94;;;8.69;100.00
62059;BME280;48017;51.064;7.014;2022-10-19T02:34:58;102026.16;;;8.65;100.00
62059;BME280;48017;51.064;7.014;2022-10-19T02:37:24;102022.50;;;8.68;100.00
62059;BME280;48017;51.064;7.014;2022-10-19T02:39:49;102015.66;;;8.48;100.00
62059;BME280;48017;51.064;7.014;2022-10-19T02:42:19;102015.84;;;8.28;100.00
62059;BME280;48017;51.064;7.014;2022-10-19T02:44:56;102017.00;;;8.22;100.00
62059;BME280;48017;51.064;7.014;2022-10-19T02:47:38;102008.75;;;8.28;100.00
62059;BME280;48017;51.064;7.014;2022-10-19T02:50:07;102002.84;;;8.41;100.00
62059;BME280;48017;51.064;7.014;2022-10-19T02:52:35;102001.06;;;8.41;100.00
62059;BME280;48017;51.064;7.014;2022-10-19T02:55:01;102007.66;;;8.32;100.00
62059;BME280;48017;51.064;7.014;2022-10-19T02:57:26;101994.34;;;8.01;100.00
62059;BME280;48017;51.064;7.014;2022-10-19T02:59:52;101997.44;;;8.09;100.00
62059;BME280;48017;51.064;7.014;2022-10-19T03:02:18;101993.59;;;8.32;100.00
62059;BME280;48017;51.064;7.014;2022-10-19T03:04:44;101993.66;;;8.30;100.00
62059;BME280;48017;51.064;7.014;2022-10-19T03:07:15;101995.22;;;8.34;100.00
62059;BME280;48017;51.064;7.014;2022-10-19T03:09:41;101990.56;;;8.22;100.00
62059;BME280;48017;51.064;7.014;2022-10-19T03:12:07;101990.50;;;8.24;100.00
62059;BME280;48017;51.064;7.014;2022-10-19T03:14:32;101985.13;;;8.25;100.00
62059;BME280;48017;51.064;7.014;2022-10-19T03:16:58;101992.41;;;8.37;100.00
62059;BME280;48017;51.064;7.014;2022-10-19T03:19:23;101980.19;;;8.52;100.00
62059;BME280;48017;51.064;7.014;2022-10-19T03:21:49;101986.00;;;8.59;100.00
62059;BME280;48017;51.064;7.014;2022-10-19T03:24:15;101988.56;;;8.60;100.00
62059;BME280;48017;51.064;7.014;2022-10-19T03:26:40;101988.38;;;8.63;100.00
62059;BME280;48017;51.064;7.014;2022-10-19T03:29:06;101989.81;;;8.53;100.00
62059;BME280;48017;51.064;7.014;2022-10-19T03:31:31;101997.72;;;8.20;100.00
62059;BME280;48017;51.064;7.014;2022-10-19T03:33:56;101996.66;;;8.07;100.00
62059;BME280;48017;51.064;7.014;2022-10-19T03:36:26;102000.94;;;8.09;100.00
62059;BME280;48017;51.064;7.014;2022-10-19T03:38:54;101998.44;;;8.06;100.00
62059;BME280;48017;51.064;7.014;2022-10-19T03:41:22;101998.53;;;8.05;100.00
62059;BME280;48017;51.064;7.014;2022-10-19T03:43:48;101996.16;;;8.16;100.00
62059;BME280;48017;51.064;7.014;2022-10-19T03:46:14;101999.22;;;8.08;100.00
62059;BME280;48017;51.064;7.014;2022-10-19T03:48:39;102007.06;;;8.10;100.00
62059;BME280;48017;51.064;7.014;2022-10-19T03:51:26;102005.03;;;8.15;100.00
62059;BME280;48017;51.064;7.014;2022-10-19T03:54:01;102005.75;;;8.19;100.00
62059;BME280;48017;51.064;7.014;2022-10-19T03:56:27;102004.81;;;8.20;100.00
62059;BME280;48017;51.064;7.014;2022-10-19T03:58:55;102007.53;;;8.01;100.00
62059;BME280;48017;51.064;7.014;2022-10-19T04:03:52;102014.22;;;7.91;100.00
62059;BME280;48017;51.064;7.014;2022-10-19T04:06:24;102017.03;;;7.88;100.00
62059;BME280;48017;51.064;7.014;2022-10-19T04:08:51;102015.47;;;7.84;100.00
62059;BME280;48017;51.064;7.014;2022-10-19T04:11:20;102021.47;;;7.87;100.00
62059;BME280;48017;51.064;7.014;2022-10-19T04:13:50;102020.59;;;7.87;100.00
62059;BME280;48017;51.064;7.014;2022-10-19T04:16:16;102018.75;;;7.89;100.00
62059;BME280;48017;51.064;7.014;2022-10-19T04:18:42;102018.09;;;7.84;100.00
62059;BME280;48017;51.064;7.014;2022-10-19T04:21:37;102015.94;;;7.92;100.00
62059;BME280;48017;51.064;7.014;2022-10-19T04:24:14;102016.97;;;7.89;100.00
62059;BME280;48017;51.064;7.014;2022-10-19T04:26:42;102009.56;;;7.96;100.00
62059;BME280;48017;51.064;7.014;2022-10-19T04:29:08;102004.75;;;7.87;100.00
62059;BME280;48017;51.064;7.014;2022-10-19T04:31:34;102000.81;;;7.78;100.00
62059;BME280;48017;51.064;7.014;2022-10-19T04:34:00;102002.50;;;7.79;100.00
62059;BME280;48017;51.064;7.014;2022-10-19T04:36:25;101999.31;;;7.72;100.00
62059;BME280;48017;51.064;7.014;2022-10-19T04:38:51;102005.69;;;7.68;100.00
62059;BME280;48017;51.064;7.014;2022-10-19T04:41:18;102003.28;;;7.64;100.00
62059;BME280;48017;51.064;7.014;2022-10-19T04:43:44;102000.19;;;7.73;100.00
62059;BME280;48017;51.064;7.014;2022-10-19T04:46:12;102006.31;;;7.73;100.00
62059;BME280;48017;51.064;7.014;2022-10-19T04:48:39;102010.03;;;7.69;100.00
62059;BME280;48017;51.064;7.014;2022-10-19T04:51:06;101999.16;;;7.75;100.00
62059;BME280;48017;51.064;7.014;2022-10-19T04:53:33;101991.56;;;7.69;100.00
62059;BME280;48017;51.064;7.014;2022-10-19T04:56:02;101983.31;;;7.75;100.00
62059;BME280;48017;51.064;7.014;2022-10-19T04:58:28;101989.53;;;7.74;100.00
62059;BME280;48017;51.064;7.014;2022-10-19T05:00:53;101986.75;;;7.77;100.00
62059;BME280;48017;51.064;7.014;2022-10-19T05:03:18;101984.88;;;7.62;100.00
62059;BME280;48017;51.064;7.014;2022-10-19T05:05:44;101985.81;;;7.61;100.00
62059;BME280;48017;51.064;7.014;2022-10-19T05:08:09;101990.38;;;7.40;100.00
62059;BME280;48017;51.064;7.014;2022-10-19T05:10:36;101988.44;;;7.61;100.00
62059;BME280;48017;51.064;7.014;2022-10-19T05:13:02;101985.09;;;7.40;100.00
62059;BME280;48017;51.064;7.014;2022-10-19T05:15:28;101980.97;;;7.17;100.00
62059;BME280;48017;51.064;7.014;2022-10-19T05:17:54;101979.25;;;7.16;100.00
62059;BME280;48017;51.064;7.014;2022-10-19T05:20:20;101975.84;;;7.32;100.00
62059;BME280;48017;51.064;7.014;2022-10-19T05:22:46;101980.84;;;7.38;100.00
62059;BME280;48017;51.064;7.014;2022-10-19T05:25:11;101974.31;;;7.28;100.00
62059;BME280;48017;51.064;7.014;2022-10-19T05:27:37;101972.41;;;7.12;100.00
62059;BME280;48017;51.064;7.014;2022-10-19T05:30:03;101972.72;;;7.23;100.00
62059;BME280;48017;51.064;7.014;2022-10-19T05:32:28;101972.84;;;7.39;100.00
62059;BME280;48017;51.064;7.014;2022-10-19T05:34:53;101983.06;;;7.28;100.00
62059;BME280;48017;51.064;7.014;2022-10-19T05:37:19;101989.09;;;6.94;100.00
62059;BME280;48017;51.064;7.014;2022-10-19T05:39:45;101983.72;;;7.14;100.00
62059;BME280;48017;51.064;7.014;2022-10-19T05:42:11;101974.31;;;7.28;100.00
62059;BME280;48017;51.064;7.014;2022-10-19T05:44:36;101974.66;;;7.20;100.00
62059;BME280;48017;51.064;7.014;2022-10-19T05:47:01;101987.44;;;7.10;100.00
62059;BME280;48017;51.064;7.014;2022-10-19T05:49:27;101982.53;;;6.84;100.00
62059;BME280;48017;51.064;7.014;2022-10-19T05:51:52;101980.97;;;7.17;100.00
62059;BME280;48017;51.064;7.014;2022-10-19T05:54:18;101983.97;;;7.10;100.00
62059;BME280;48017;51.064;7.014;2022-10-19T05:56:43;101983.72;;;7.14;100.00
62059;BME280;48017;51.064;7.014;2022-10-19T05:59:13;101982.00;;;7.13;100.00
62059;BME280;48017;51.064;7.014;2022-10-19T06:01:39;101980.47;;;7.09;100.00
62059;BME280;48017;51.064;7.014;2022-10-19T06:04:04;101983.03;;;7.11;100.00
62059;BME280;48017;51.064;7.014;2022-10-19T06:06:32;101982.75;;;6.98;100.00
62059;BME280;48017;51.064;7.014;2022-10-19T06:08:58;101982.75;;;6.98;100.00
62059;BME280;48017;51.064;7.014;2022-10-19T06:11:26;101988.44;;;7.08;100.00
62059;BME280;48017;51.064;7.014;2022-10-19T06:13:57;101988.38;;;7.09;100.00
62059;BME280;48017;51.064;7.014;2022-10-19T06:16:26;101977.78;;;6.92;100.00
62059;BME280;48017;51.064;7.014;2022-10-19T06:18:53;101979.78;;;7.06;100.00
62059;BME280;48017;51.064;7.014;2022-10-19T06:21:20;101976.28;;;7.05;100.00
62059;BME280;48017;51.064;7.014;2022-10-19T06:23:50;101973.00;;;6.81;100.00
62059;BME280;48017;51.064;7.014;2022-10-19T06:26:16;101972.81;;;6.67;100.00
62059;BME280;48017;51.064;7.014;2022-10-19T06:28:42;101968.41;;;6.68;100.00
62059;BME280;48017;51.064;7.014;2022-10-19T06:31:08;101973.16;;;7.14;100.00
62059;BME280;48017;51.064;7.014;2022-10-19T06:33:34;101978.97;;;7.92;100.00
62059;BME280;48017;51.064;7.014;2022-10-19T06:36:12;101985.22;;;8.06;100.00
62059;BME280;48017;51.064;7.014;2022-10-19T06:38:38;101976.34;;;8.42;100.00
62059;BME280;48017;51.064;7.014;2022-10-19T06:41:03;101984.31;;;8.89;96.62
62059;BME280;48017;51.064;7.014;2022-10-19T06:43:29;101994.75;;;9.38;93.18
62059;BME280;48017;51.064;7.014;2022-10-19T06:45:55;102010.41;;;9.27;93.92
62059;BME280;48017;51.064;7.014;2022-10-19T06:48:20;102009.56;;;9.57;93.04
62059;BME280;48017;51.064;7.014;2022-10-19T06:50:46;102011.78;;;9.94;90.60
62059;BME280;48017;51.064;7.014;2022-10-19T06:53:11;102007.97;;;9.98;90.39
62059;BME280;48017;51.064;7.014;2022-10-19T06:55:36;102005.78;;;10.35;88.44
62059;BME280;48017;51.064;7.014;2022-10-19T06:58:02;102005.13;;;10.46;87.41
62059;BME280;48017;51.064;7.014;2022-10-19T07:00:28;101996.94;;;11.85;80.78
62059;BME280;48017;51.064;7.014;2022-10-19T07:02:55;101998.69;;;12.37;76.86
62059;BME280;48017;51.064;7.014;2022-10-19T07:05:20;101997.50;;;12.41;74.21
62059;BME280;48017;51.064;7.014;2022-10-19T07:07:46;101998.00;;;13.08;72.13
62059;BME280;48017;51.064;7.014;2022-10-19T07:10:11;101988.19;;;13.57;70.46
62059;BME280;48017;51.064;7.014;2022-10-19T07:12:37;101987.91;;;13.48;70.45
62059;BME280;48017;51.064;7.014;2022-10-19T07:15:02;101984.50;;;12.98;71.61
62059;BME280;48017;51.064;7.014;2022-10-19T07:17:28;101994.31;;;12.49;76.01
62059;BME280;48017;51.064;7.014;2022-10-19T07:19:54;101993.44;;;13.34;71.75
62059;BME280;48017;51.064;7.014;2022-10-19T07:22:19;101998.66;;;12.62;74.90
62059;BME280;48017;51.064;7.014;2022-10-19T07:24:45;101995.50;;;12.19;77.59
62059;BME280;48017;51.064;7.014;2022-10-19T07:27:10;102010.03;;;11.21;82.92
62059;BME280;48017;51.064;7.014;2022-10-19T07:29:35;102012.59;;;11.90;80.05
62059;BME280;48017;51.064;7.014;2022-10-19T07:32:01;102006.03;;;12.08;78.36
62059;BME280;48017;51.064;7.014;2022-10-19T07:34:26;102003.31;;;11.82;80.56
62059;BME280;48017;51.064;7.014;2022-10-19T07:36:52;102007.09;;;12.18;80.08
62059;BME280;48017;51.064;7.014;2022-10-19T07:39:19;102007.84;;;12.07;80.00
62059;BME280;48017;51.064;7.014;2022-10-19T07:41:45;102011.28;;;12.72;77.76
62059;BME280;48017;51.064;7.014;2022-10-19T07:44:11;102009.13;;;14.87;68.53
62059;BME280;48017;51.064;7.014;2022-10-19T07:46:37;102017.84;;;15.44;64.74
62059;BME280;48017;51.064;7.014;2022-10-19T07:49:06;102011.91;;;14.86;67.44
62059;BME280;48017;51.064;7.014;2022-10-19T07:51:33;102004.88;;;14.85;66.37
62059;BME280;48017;51.064;7.014;2022-10-19T07:53:59;101998.31;;;12.80;74.99
62059;BME280;48017;51.064;7.014;2022-10-19T07:56:26;102000.94;;;13.16;74.87
62059;BME280;48017;51.064;7.014;2022-10-19T07:58:54;102007.19;;;13.28;74.16
62059;BME280;48017;51.064;7.014;2022-10-19T08:01:23;102011.59;;;13.16;74.73
62059;BME280;48017;51.064;7.014;2022-10-19T08:03:51;102012.81;;;14.06;71.15
62059;BME280;48017;51.064;7.014;2022-10-19T08:06:17;102013.22;;;13.78;72.23
62059;BME280;48017;51.064;7.014;2022-10-19T08:08:44;102010.47;;;14.59;69.56
62059;BME280;48017;51.064;7.014;2022-10-19T08:11:17;102005.00;;;15.91;64.31
62059;BME280;48017;51.064;7.014;2022-10-19T08:13:43;101997.69;;;16.44;61.84
62059;BME280;48017;51.064;7.014;2022-10-19T08:19:00;101996.00;;;17.52;58.16
62059;BME280;48017;51.064;7.014;2022-10-19T08:21:27;101990.94;;;18.35;56.27
62059;BME280;48017;51.064;7.014;2022-10-19T08:23:53;101986.19;;;19.82;50.93
62059;BME280;48017;51.064;7.014;2022-10-19T08:26:19;101986.19;;;20.34;49.48
62059;BME280;48017;51.064;7.014;2022-10-19T08:28:45;101984.19;;;20.36;48.47
62059;BME280;48017;51.064;7.014;2022-10-19T08:31:19;101981.84;;;19.90;48.87
62059;BME280;48017;51.064;7.014;2022-10-19T08:33:45;101990.19;;;19.25;49.89
62059;BME280;48017;51.064;7.014;2022-10-19T08:36:12;101994.19;;;19.74;49.18
62059;BME280;48017;51.064;7.014;2022-10-19T08:38:39;101974.50;;;19.38;49.56
62059;BME280;48017;51.064;7.014;2022-10-19T08:49:41;101961.66;;;19.85;50.26
62059;BME280;48017;51.064;7.014;2022-10-19T08:52:15;101960.63;;;20.38;48.93
62059;BME280;48017;51.064;7.014;2022-10-19T08:57:49;101951.50;;;21.40;45.62
62059;BME280;48017;51.064;7.014;2022-10-19T09:00:46;101951.78;;;21.13;46.57
62059;BME280;48017;51.064;7.014;2022-10-19T09:08:26;101942.28;;;20.76;47.60
62059;BME280;48017;51.064;7.014;2022-10-19T09:10:53;101939.34;;;21.52;44.89
62059;BME280;48017;51.064;7.014;2022-10-19T09:13:33;101928.56;;;21.77;44.67
62059;BME280;48017;51.064;7.014;2022-10-19T09:15:59;101938.34;;;21.78;44.87
62059;BME280;48017;51.064;7.014;2022-10-19T09:18:31;101932.13;;;20.70;46.81
62059;BME280;48017;51.064;7.014;2022-10-19T09:21:15;101930.63;;;17.92;55.50
62059;BME280;48017;51.064;7.014;2022-10-19T09:26:26;101920.28;;;18.62;51.62
62059;BME280;48017;51.064;7.014;2022-10-19T09:29:00;101922.22;;;17.48;52.82
62059;BME280;48017;51.064;7.014;2022-10-19T09:31:31;101924.84;;;16.71;56.43
62059;BME280;48017;51.064;7.014;2022-10-19T09:34:02;101919.78;;;17.16;55.16
62059;BME280;48017;51.064;7.014;2022-10-19T09:36:40;101925.16;;;17.36;54.59
62059;BME280;48017;51.064;7.014;2022-10-19T09:39:10;101924.81;;;17.97;54.21
62059;BME280;48017;51.064;7.014;2022-10-19T09:41:43;101925.84;;;18.78;51.60
62059;BME280;48017;51.064;7.014;2022-10-19T09:44:09;101924.91;;;18.42;50.98
62059;BME280;48017;51.064;7.014;2022-10-19T09:46:43;101920.22;;;17.70;52.50
62059;BME280;48017;51.064;7.014;2022-10-19T09:49:09;101920.63;;;17.36;54.13
62059;BME280;48017;51.064;7.014;2022-10-19T09:51:49;101908.47;;;17.90;52.29
62059;BME280;48017;51.064;7.014;2022-10-19T09:54:37;101910.34;;;17.41;54.33
62059;BME280;48017;51.064;7.014;2022-10-19T09:57:04;101916.84;;;17.39;54.14
62059;BME280;48017;51.064;7.014;2022-10-19T09:59:33;101919.38;;;17.11;52.94
62059;BME280;48017;51.064;7.014;2022-10-19T10:02:10;101913.56;;;17.74;53.04
62059;BME280;48017;51.064;7.014;2022-10-19T10:04:37;101917.97;;;18.12;51.53
62059;BME280;48017;51.064;7.014;2022-10-19T10:07:03;101915.16;;;17.47;52.55
62059;BME280;48017;51.064;7.014;2022-10-19T10:09:28;101923.31;;;18.22;50.98
62059;BME280;48017;51.064;7.014;2022-10-19T10:11:57;101913.44;;;18.50;49.43
62059;BME280;48017;51.064;7.014;2022-10-19T10:17:05;101916.09;;;17.66;52.04
62059;BME280;48017;51.064;7.014;2022-10-19T10:19:32;101915.00;;;17.49;53.23
62059;BME280;48017;51.064;7.014;2022-10-19T10:22:02;101913.56;;;17.74;52.10
62059;BME280;48017;51.064;7.014;2022-10-19T10:24:30;101903.41;;;17.68;53.13
62059;BME280;48017;51.064;7.014;2022-10-19T10:26:58;101901.19;;;16.86;54.90
62059;BME280;48017;51.064;7.014;2022-10-19T10:29:33;101900.94;;;16.49;56.02
62059;BME280;48017;51.064;7.014;2022-10-19T10:32:05;101899.34;;;17.35;54.57
62059;BME280;48017;51.064;7.014;2022-10-19T10:34:46;101893.28;;;17.13;54.08
62059;BME280;48017;51.064;7.014;2022-10-19T10:37:20;101896.13;;;17.21;53.94
62059;BME280;48017;51.064;7.014;2022-10-19T10:39:50;101895.28;;;17.11;55.09
62059;BME280;48017;51.064;7.014;2022-10-19T10:42:20;101883.00;;;17.09;53.70
62059;BME280;48017;51.064;7.014;2022-10-19T10:44:50;101883.16;;;17.17;54.46
62059;BME280;48017;51.064;7.014;2022-10-19T10:47:18;101883.16;;;17.07;54.39
62059;BME280;48017;51.064;7.014;2022-10-19T10:50:02;101867.31;;;17.33;53.63
62059;BME280;48017;51.064;7.014;2022-10-19T10:52:30;101879.19;;;17.21;54.67
62059;BME280;48017;51.064;7.014;2022-10-19T10:57:24;101870.44;;;18.32;52.38
62059;BME280;48017;51.064;7.014;2022-10-19T11:02:32;101863.50;;;19.72;49.12
62059;BME280;48017;51.064;7.014;2022-10-19T11:07:43;101850.03;;;19.46;48.68
62059;BME280;48017;51.064;7.014;2022-10-19T11:10:56;101858.69;;;18.96;49.17
62059;BME280;48017;51.064;7.014;2022-10-19T11:13:40;101851.50;;;19.92;46.54
62059;BME280;48017;51.064;7.014;2022-10-19T11:16:13;101841.84;;;19.81;46.64
62059;BME280;48017;51.064;7.014;2022-10-19T11:18:53;101835.34;;;18.61;51.03
62059;BME280;48017;51.064;7.014;2022-10-19T11:30:12;101827.94;;;21.27;44.23
62059;BME280;48017;51.064;7.014;2022-10-19T11:35:27;101819.25;;;22.20;42.06
62059;BME280;48017;51.064;7.014;2022-10-19T11:38:20;101818.81;;;21.28;43.05
62059;BME280;48017;51.064;7.014;2022-10-19T11:49:40;101799.66;;;20.24;45.11
62059;BME280;48017;51.064;7.014;2022-10-19T11:52:29;101790.94;;;19.88;46.72
62059;BME280;48017;51.064;7.014;2022-10-19T11:57:33;101784.50;;;19.73;47.99
62059;BME280;48017;51.064;7.014;2022-10-19T12:05:36;101779.09;;;21.70;43.12
62059;BME280;48017;51.064;7.014;2022-10-19T12:11:43;101761.31;;;21.20;42.97
62059;BME280;48017;51.064;7.014;2022-10-19T12:14:15;101762.16;;;21.20;41.29
62059;BME280;48017;51.064;7.014;2022-10-19T12:16:47;101755.56;;;21.23;42.96
62059;BME280;48017;51.064;7.014;2022-10-19T12:19:27;101752.75;;;22.88;40.14
62059;BME280;48017;51.064;7.014;2022-10-19T12:21:57;101744.56;;;22.96;39.56
62059;BME280;48017;51.064;7.014;2022-10-19T12:24:24;101745.66;;;22.87;39.87
62059;BME280;48017;51.064;7.014;2022-10-19T12:26:52;101737.50;;;23.24;38.29
62059;BME280;48017;51.064;7.014;2022-10-19T12:29:22;101742.66;;;23.19;38.54
62059;BME280;48017;51.064;7.014;2022-10-19T12:31:50;101726.88;;;23.38;37.74
62059;BME280;48017;51.064;7.014;2022-10-19T12:40:05;101708.34;;;21.43;39.95
62059;BME280;48017;51.064;7.014;2022-10-19T12:42:50;101700.81;;;21.78;39.67
62059;BME280;48017;51.064;7.014;2022-10-19T12:56:07;101687.41;;;22.16;39.12
62059;BME280;48017;51.064;7.014;2022-10-19T12:58:59;101688.06;;;20.84;38.57
62059;BME280;48017;51.064;7.014;2022-10-19T13:01:41;101672.38;;;19.98;42.00
62059;BME280;48017;51.064;7.014;2022-10-19T13:04:13;101675.47;;;20.35;42.32
62059;BME280;48017;51.064;7.014;2022-10-19T13:07:01;101667.22;;;20.53;41.59
62059;BME280;48017;51.064;7.014;2022-10-19T13:09:37;101665.88;;;20.49;41.02
62059;BME280;48017;51.064;7.014;2022-10-19T13:22:40;101646.00;;;20.26;42.68
62059;BME280;48017;51.064;7.014;2022-10-19T13:27:41;101632.47;;;20.91;41.88
62059;BME280;48017;51.064;7.014;2022-10-19T13:30:59;101638.94;;;20.65;42.10
62059;BME280;48017;51.064;7.014;2022-10-19T13:38:46;101630.03;;;21.12;41.51
62059;BME280;48017;51.064;7.014;2022-10-19T13:41:23;101624.94;;;20.21;43.13
62059;BME280;48017;51.064;7.014;2022-10-19T14:06:01;101607.88;;;18.61;51.57
62059;BME280;48017;51.064;7.014;2022-10-19T14:13:43;101596.53;;;18.67;51.19
62059;BME280;48017;51.064;7.014;2022-10-19T14:16:19;101596.63;;;18.84;50.91
62059;BME280;48017;51.064;7.014;2022-10-19T14:18:53;101601.34;;;18.64;52.08
62059;BME280;48017;51.064;7.014;2022-10-19T14:21:28;101605.16;;;18.35;53.33
62059;BME280;48017;51.064;7.014;2022-10-19T14:23:55;101599.56;;;18.29;54.80
62059;BME280;48017;51.064;7.014;2022-10-19T14:26:22;101595.75;;;18.31;55.30
62059;BME280;48017;51.064;7.014;2022-10-19T14:28:51;101594.94;;;18.39;54.47
62059;BME280;48017;51.064;7.014;2022-10-19T14:31:21;101588.72;;;18.12;55.45
62059;BME280;48017;51.064;7.014;2022-10-19T14:33:50;101589.16;;;18.08;55.77
62059;BME280;48017;51.064;7.014;2022-10-19T14:36:21;101587.53;;;18.33;55.33
62059;BME280;48017;51.064;7.014;2022-10-19T14:38:49;101580.59;;;18.04;55.97
62059;BME280;48017;51.064;7.014;2022-10-19T14:41:20;101583.59;;;18.19;55.39
62059;BME280;48017;51.064;7.014;2022-10-19T14:43:57;101577.00;;;18.13;55.77
62059;BME280;48017;51.064;7.014;2022-10-19T14:46:31;101575.31;;;18.12;56.41
62059;BME280;48017;51.064;7.014;2022-10-19T14:49:04;101563.81;;;17.84;55.96
62059;BME280;48017;51.064;7.014;2022-10-19T14:51:40;101571.63;;;17.96;55.73
62059;BME280;48017;51.064;7.014;2022-10-19T14:54:14;101573.19;;;17.98;56.02
62059;BME280;48017;51.064;7.014;2022-10-19T14:56:47;101563.81;;;18.02;55.76
62059;BME280;48017;51.064;7.014;2022-10-19T14:59:25;101555.59;;;18.22;55.52
62059;BME280;48017;51.064;7.014;2022-10-19T15:01:55;101546.50;;;18.40;54.27
62059;BME280;48017;51.064;7.014;2022-10-19T15:04:25;101548.31;;;19.00;53.02
62059;BME280;48017;51.064;7.014;2022-10-19T15:06:52;101552.41;;;19.71;50.92
62059;BME280;48017;51.064;7.014;2022-10-19T15:09:25;101549.72;;;20.11;49.94
62059;BME280;48017;51.064;7.014;2022-10-19T15:11:52;101548.53;;;20.22;49.67
62059;BME280;48017;51.064;7.014;2022-10-19T15:14:21;101540.28;;;20.40;48.92
62059;BME280;48017;51.064;7.014;2022-10-19T15:16:55;101545.28;;;20.76;48.18
62059;BME280;48017;51.064;7.014;2022-10-19T15:19:27;101538.97;;;20.91;47.23
62059;BME280;48017;51.064;7.014;2022-10-19T15:24:39;101533.91;;;19.92;49.67
62059;BME280;48017;51.064;7.014;2022-10-19T15:27:31;101522.84;;;19.20;51.79
62059;BME280;48017;51.064;7.014;2022-10-19T15:32:42;101520.88;;;18.54;53.00
62059;BME280;48017;51.064;7.014;2022-10-19T15:35:29;101506.09;;;18.50;53.64
62059;BME280;48017;51.064;7.014;2022-10-19T15:38:01;101504.78;;;18.54;53.88
62059;BME280;48017;51.064;7.014;2022-10-19T15:40:38;101514.91;;;18.34;54.21
62059;BME280;48017;51.064;7.014;2022-10-19T15:43:52;101508.88;;;18.14;54.83
62059;BME280;48017;51.064;7.014;2022-10-19T15:46:22;101516.03;;;18.06;55.15